createdAt,value
2018-07-03T00:00:35.207Z,0.90
2018-07-03T00:03:04.012Z,1.20
2018-07-03T00:05:32.479Z,0.87
2018-07-03T00:08:00.987Z,0.90
2018-07-03T00:10:29.606Z,0.90
2018-07-03T00:12:58.116Z,1.20
2018-07-03T00:15:26.915Z,1.00
2018-07-03T00:17:55.558Z,1.03
2018-07-03T00:20:24.184Z,0.90
2018-07-03T00:22:53.098Z,0.90
2018-07-03T00:25:21.664Z,1.20
2018-07-03T00:27:50.180Z,1.03
2018-07-03T00:30:18.459Z,1.10
2018-07-03T00:32:46.976Z,1.00
2018-07-03T00:35:15.471Z,0.90
2018-07-03T00:37:43.949Z,0.90
2018-07-03T00:40:12.659Z,1.00
2018-07-03T00:42:41.139Z,1.20
2018-07-03T00:45:09.740Z,0.80
2018-07-03T00:47:38.378Z,0.87
2018-07-03T00:50:07.043Z,1.07
2018-07-03T00:52:35.786Z,0.80
2018-07-03T00:55:03.986Z,0.80
2018-07-03T00:57:32.510Z,1.20
2018-07-03T01:00:12.109Z,0.80
2018-07-03T01:02:40.654Z,1.00
2018-07-03T01:05:09.491Z,0.87
2018-07-03T01:07:38.276Z,1.00
2018-07-03T01:10:07.244Z,0.97
2018-07-03T01:12:35.716Z,0.93
2018-07-03T01:15:04.535Z,0.90
2018-07-03T01:17:33.024Z,1.30
2018-07-03T01:20:01.712Z,1.00
2018-07-03T01:22:30.346Z,1.30
2018-07-03T01:24:58.834Z,1.00
2018-07-03T01:27:27.287Z,1.00
2018-07-03T01:29:55.903Z,0.90
2018-07-03T01:32:24.541Z,1.00
2018-07-03T01:34:53.082Z,1.17
2018-07-03T01:37:21.603Z,1.23
2018-07-03T01:39:50.191Z,1.00
2018-07-03T01:42:18.739Z,0.90
2018-07-03T01:44:47.275Z,1.10
2018-07-03T01:47:16.006Z,0.67
2018-07-03T01:49:44.529Z,0.93
2018-07-03T01:52:13.070Z,1.00
2018-07-03T01:54:41.628Z,0.90
2018-07-03T01:57:10.107Z,0.80
2018-07-03T01:59:38.878Z,1.00
2018-07-03T02:02:07.417Z,0.90
2018-07-03T02:04:35.887Z,0.90
2018-07-03T02:07:04.046Z,0.90
2018-07-03T02:09:33.123Z,1.20
2018-07-03T02:12:01.608Z,0.90
2018-07-03T02:14:30.119Z,1.10
2018-07-03T02:16:58.604Z,1.00
2018-07-03T02:19:27.130Z,1.20
2018-07-03T02:21:55.919Z,1.20
2018-07-03T02:24:24.458Z,1.27
2018-07-03T02:26:52.910Z,1.03
2018-07-03T02:29:21.499Z,0.93
2018-07-03T02:31:50.073Z,1.00
2018-07-03T02:34:18.742Z,1.07
2018-07-03T02:36:47.259Z,1.00
2018-07-03T02:39:15.816Z,1.13
2018-07-03T02:41:44.501Z,1.20
2018-07-03T02:44:13.028Z,1.10
2018-07-03T02:46:41.682Z,1.00
2018-07-03T02:49:10.163Z,1.30
2018-07-03T02:51:38.835Z,1.20
2018-07-03T02:54:07.296Z,1.10
2018-07-03T02:56:35.771Z,0.80
2018-07-03T02:59:04.776Z,1.20
2018-07-03T03:01:33.611Z,1.17
2018-07-03T03:04:02.244Z,1.23
2018-07-03T03:06:30.732Z,1.20
2018-07-03T03:08:59.364Z,1.20
2018-07-03T03:11:27.871Z,1.20
2018-07-03T03:13:57.111Z,1.20
2018-07-03T03:16:25.579Z,0.97
2018-07-03T03:18:54.065Z,1.30
2018-07-03T03:21:22.530Z,1.30
2018-07-03T03:23:51.085Z,1.30
2018-07-03T03:26:19.659Z,1.20
2018-07-03T03:28:48.454Z,1.10
2018-07-03T03:31:17.090Z,1.40
2018-07-03T03:33:46.011Z,1.50
2018-07-03T03:36:14.174Z,1.77
2018-07-03T03:38:42.695Z,1.23
2018-07-03T03:41:11.250Z,1.47
2018-07-03T03:43:39.447Z,1.33
2018-07-03T03:46:07.938Z,1.67
2018-07-03T03:48:36.758Z,1.23
2018-07-03T03:51:05.296Z,1.33
2018-07-03T03:53:33.947Z,1.40
2018-07-03T03:56:02.853Z,1.20
2018-07-03T03:58:31.503Z,1.77
2018-07-03T04:01:00.037Z,1.80
2018-07-03T04:03:28.520Z,1.30
2018-07-03T04:05:57.147Z,1.93
2018-07-03T04:08:25.814Z,1.70
2018-07-03T04:10:54.475Z,1.50
2018-07-03T04:13:23.210Z,1.50
2018-07-03T04:15:51.670Z,1.83
2018-07-03T04:18:30.513Z,1.33
2018-07-03T04:20:58.995Z,1.60
2018-07-03T04:23:28.119Z,1.37
2018-07-03T04:25:56.492Z,2.03
2018-07-03T04:28:25.138Z,1.67
2018-07-03T04:30:53.892Z,1.30
2018-07-03T04:33:22.540Z,1.30
2018-07-03T04:35:51.047Z,1.50
2018-07-03T04:38:20.027Z,1.60
2018-07-03T04:40:48.430Z,2.00
2018-07-03T04:43:17.399Z,1.50
2018-07-03T04:45:45.900Z,1.77
2018-07-03T04:48:14.487Z,1.27
2018-07-03T04:50:43.251Z,1.57
2018-07-03T04:53:12.005Z,1.43
2018-07-03T04:55:40.557Z,1.73
2018-07-03T04:58:09.316Z,1.60
2018-07-03T05:00:37.790Z,1.37
2018-07-03T05:03:07.079Z,1.23
2018-07-03T05:05:35.581Z,1.43
2018-07-03T05:08:04.099Z,1.30
2018-07-03T05:10:32.609Z,1.50
2018-07-03T05:13:01.238Z,1.60
2018-07-03T05:15:29.770Z,1.60
2018-07-03T05:17:58.246Z,1.23
2018-07-03T05:20:26.770Z,1.40
2018-07-03T05:22:55.619Z,1.40
2018-07-03T05:25:24.155Z,1.30
2018-07-03T05:27:53.022Z,1.30
2018-07-03T05:30:21.495Z,1.50
2018-07-03T05:32:50.004Z,1.37
2018-07-03T05:35:18.722Z,1.20
2018-07-03T05:37:47.407Z,1.33
2018-07-03T05:40:16.243Z,1.27
2018-07-03T05:42:44.851Z,1.63
2018-07-03T05:45:13.342Z,1.27
2018-07-03T05:47:41.902Z,1.17
2018-07-03T05:50:10.425Z,1.43
2018-07-03T05:52:38.991Z,1.47
2018-07-03T05:55:07.466Z,1.43
2018-07-03T05:57:36.223Z,1.40
2018-07-03T06:00:05.522Z,1.40
2018-07-03T06:02:33.721Z,1.50
2018-07-03T06:05:02.453Z,1.20
2018-07-03T06:07:31.150Z,1.10
2018-07-03T06:10:00.093Z,1.20
2018-07-03T06:12:28.672Z,1.50
2018-07-03T06:14:57.855Z,1.20
2018-07-03T06:17:26.302Z,1.27
2018-07-03T06:19:54.898Z,1.30
2018-07-03T06:22:23.390Z,1.30
2018-07-03T06:24:51.871Z,1.37
2018-07-03T06:27:20.629Z,1.23
2018-07-03T06:29:49.235Z,1.40
2018-07-03T06:32:17.770Z,1.57
2018-07-03T06:34:46.351Z,1.33
2018-07-03T06:37:15.192Z,0.83
2018-07-03T06:39:43.884Z,1.30
2018-07-03T06:42:12.389Z,1.50
2018-07-03T06:44:41.277Z,1.20
2018-07-03T06:47:09.861Z,1.30
2018-07-03T06:49:38.383Z,1.10
2018-07-03T06:52:06.947Z,1.10
2018-07-03T06:54:35.472Z,1.23
2018-07-03T06:57:04.332Z,1.50
2018-07-03T06:59:33.370Z,0.93
2018-07-03T07:02:02.027Z,1.20
2018-07-03T07:04:30.672Z,1.13
2018-07-03T07:06:59.175Z,1.00
2018-07-03T07:09:27.856Z,1.10
2018-07-03T07:11:56.591Z,1.27
2018-07-03T07:14:25.119Z,1.13
2018-07-03T07:16:53.675Z,1.20
2018-07-03T07:19:22.187Z,1.07
2018-07-03T07:21:50.743Z,1.10
2018-07-03T07:24:19.255Z,1.10
2018-07-03T07:26:48.021Z,1.40
2018-07-03T07:29:16.618Z,0.90
2018-07-03T07:31:44.753Z,1.20
2018-07-03T07:36:41.014Z,0.87
2018-07-03T07:39:11.783Z,1.10
2018-07-03T07:41:40.800Z,0.90
2018-07-03T07:44:09.816Z,0.80
2018-07-03T07:46:38.560Z,0.80
2018-07-03T07:49:07.386Z,0.93
2018-07-03T07:51:35.885Z,1.00
2018-07-03T07:54:04.444Z,0.73
2018-07-03T07:56:32.957Z,0.90
2018-07-03T07:59:01.570Z,0.80
2018-07-03T08:01:30.044Z,0.70
2018-07-03T08:03:59.169Z,0.87
2018-07-03T08:06:27.708Z,0.60
2018-07-03T08:08:56.620Z,0.90
2018-07-03T08:11:25.471Z,0.80
2018-07-03T08:13:55.081Z,0.77
2018-07-03T08:16:23.609Z,0.70
2018-07-03T08:18:52.351Z,0.70
2018-07-03T08:21:21.055Z,1.00
2018-07-03T08:23:49.655Z,0.80
2018-07-03T08:26:18.231Z,0.90
2018-07-03T08:28:47.068Z,0.60
2018-07-03T08:31:15.694Z,0.60
2018-07-03T08:33:44.517Z,0.80
2018-07-03T08:36:13.310Z,0.85
2018-07-03T08:38:42.002Z,0.70
2018-07-03T08:41:10.688Z,0.93
2018-07-03T08:43:39.236Z,0.87
2018-07-03T08:46:07.748Z,0.90
2018-07-03T08:48:36.267Z,0.80
2018-07-03T08:51:04.830Z,0.90
2018-07-03T08:53:33.027Z,0.83
2018-07-03T08:56:01.796Z,0.80
2018-07-03T08:58:30.439Z,0.70
2018-07-03T09:00:59.131Z,0.60
2018-07-03T09:03:27.644Z,0.80
2018-07-03T09:05:56.453Z,1.10
2018-07-03T09:08:25.191Z,0.80
2018-07-03T09:10:53.926Z,0.73
2018-07-03T09:13:22.896Z,0.90
2018-07-03T09:15:51.810Z,0.90
2018-07-03T09:18:20.338Z,0.70
2018-07-03T09:20:48.916Z,0.70
2018-07-03T09:23:17.470Z,0.83
2018-07-03T09:25:46.207Z,0.60
2018-07-03T09:28:14.776Z,1.00
2018-07-03T09:30:43.285Z,0.70
2018-07-03T09:33:11.840Z,0.80
2018-07-03T09:35:40.357Z,0.90
2018-07-03T09:38:09.015Z,0.90
2018-07-03T09:40:37.810Z,1.10
2018-07-03T09:43:06.433Z,0.80
2018-07-03T09:45:35.221Z,1.00
2018-07-03T09:48:04.314Z,0.88
2018-07-03T09:50:33.162Z,0.90
2018-07-03T09:53:01.649Z,0.88
2018-07-03T09:55:30.258Z,0.80
2018-07-03T09:57:58.874Z,0.70
2018-07-03T10:00:32.674Z,1.00
2018-07-03T10:03:01.402Z,0.72
2018-07-03T10:05:30.103Z,0.98
2018-07-03T10:07:58.275Z,0.80
2018-07-03T10:10:26.828Z,0.90
2018-07-03T10:12:55.552Z,0.72
2018-07-03T10:15:24.224Z,0.80
2018-07-03T10:17:52.539Z,0.80
2018-07-03T10:20:21.635Z,0.70
2018-07-03T10:22:50.177Z,0.80
2018-07-03T10:25:18.710Z,0.82
2018-07-03T10:27:47.498Z,0.90
2018-07-03T10:30:16.727Z,1.10
2018-07-03T10:32:45.276Z,0.85
2018-07-03T10:35:13.823Z,0.88
2018-07-03T10:37:42.398Z,1.02
2018-07-03T10:40:11.353Z,0.90
2018-07-03T10:42:39.942Z,1.00
2018-07-03T10:45:08.485Z,0.70
2018-07-03T10:47:37.016Z,1.00
2018-07-03T10:50:05.801Z,0.93
2018-07-03T10:52:34.548Z,1.07
2018-07-03T10:55:03.859Z,0.90
2018-07-03T10:57:32.533Z,0.90
2018-07-03T11:00:01.251Z,0.95
2018-07-03T11:02:29.745Z,0.78
2018-07-03T11:04:58.507Z,0.90
2018-07-03T11:07:27.169Z,0.90
2018-07-03T11:09:55.866Z,0.90
2018-07-03T11:12:24.428Z,0.85
2018-07-03T11:14:53.087Z,0.80
2018-07-03T11:17:21.464Z,1.27
2018-07-03T11:19:50.194Z,1.02
2018-07-03T11:22:18.740Z,0.70
2018-07-03T11:24:47.435Z,1.10
2018-07-03T11:27:16.076Z,0.90
2018-07-03T11:29:44.922Z,0.72
2018-07-03T11:32:13.786Z,0.80
2018-07-03T11:34:42.550Z,0.90
2018-07-03T11:37:11.323Z,0.90
2018-07-03T11:39:39.895Z,0.78
2018-07-03T11:42:08.506Z,0.70
2018-07-03T11:44:37.089Z,0.80
2018-07-03T11:47:05.997Z,0.80
2018-07-03T11:49:35.943Z,1.22
2018-07-03T11:52:04.920Z,0.82
2018-07-03T11:54:33.736Z,0.78
2018-07-03T11:57:02.316Z,1.00
2018-07-03T11:59:31.143Z,0.82
2018-07-03T12:01:59.700Z,0.90
2018-07-03T12:04:29.269Z,0.90
2018-07-03T12:06:58.205Z,0.95
2018-07-03T12:09:27.042Z,1.10
2018-07-03T12:11:55.660Z,0.90
2018-07-03T12:14:24.741Z,1.00
2018-07-03T12:16:53.386Z,0.90
2018-07-03T12:19:21.953Z,0.90
2018-07-03T12:21:50.663Z,0.60
2018-07-03T12:24:19.612Z,1.00
2018-07-03T12:26:48.126Z,0.90
2018-07-03T12:29:16.628Z,0.90
2018-07-03T12:31:45.209Z,1.10
2018-07-03T12:34:13.455Z,0.90
2018-07-03T12:36:42.400Z,1.10
2018-07-03T12:39:11.575Z,0.80
2018-07-03T12:41:40.554Z,0.85
2018-07-03T12:44:09.408Z,1.25
2018-07-03T12:46:38.059Z,1.10
2018-07-03T12:49:06.968Z,0.80
2018-07-03T12:51:35.691Z,1.07
2018-07-03T12:54:04.429Z,0.75
2018-07-03T12:56:33.219Z,0.90
2018-07-03T12:59:01.761Z,0.90
2018-07-03T13:01:30.499Z,1.00
2018-07-03T13:03:59.272Z,0.82
2018-07-03T13:06:27.935Z,0.90
2018-07-03T13:08:56.863Z,1.00
2018-07-03T13:11:25.487Z,0.90
2018-07-03T13:13:53.975Z,1.05
2018-07-03T13:16:22.499Z,0.80
2018-07-03T13:18:51.324Z,1.00
2018-07-03T13:21:20.035Z,0.82
2018-07-03T13:23:48.962Z,0.93
2018-07-03T13:26:17.695Z,1.00
2018-07-03T13:28:46.538Z,1.00
2018-07-03T13:31:15.471Z,1.05
2018-07-03T13:33:44.372Z,0.90
2018-07-03T13:36:13.011Z,1.00
2018-07-03T13:38:41.763Z,0.90
2018-07-03T13:41:10.329Z,0.98
2018-07-03T13:43:39.055Z,1.00
2018-07-03T13:46:07.559Z,0.93
2018-07-03T13:48:36.063Z,0.98
2018-07-03T13:51:04.692Z,0.72
2018-07-03T13:53:33.255Z,1.00
2018-07-03T13:56:01.798Z,1.00
2018-07-03T13:58:30.380Z,0.90
2018-07-03T14:00:59.025Z,1.12
2018-07-03T14:03:27.990Z,0.93
2018-07-03T14:05:57.347Z,0.93
2018-07-03T14:08:26.501Z,0.98
2018-07-03T14:10:55.301Z,0.80
2018-07-03T14:13:24.013Z,1.07
2018-07-03T14:15:52.599Z,0.90
2018-07-03T14:18:25.664Z,1.10
2018-07-03T14:20:56.384Z,0.90
2018-07-03T14:23:25.306Z,0.93
2018-07-03T14:25:54.191Z,0.90
2018-07-03T14:28:22.974Z,0.80
2018-07-03T14:30:51.608Z,0.98
2018-07-03T14:33:20.369Z,1.10
2018-07-03T14:35:49.202Z,1.00
2018-07-03T14:38:17.789Z,0.98
2018-07-03T14:40:46.184Z,0.98
2018-07-03T14:43:14.750Z,0.90
2018-07-03T14:45:43.515Z,0.90
2018-07-03T14:48:12.050Z,0.80
2018-07-03T14:50:40.669Z,0.90
2018-07-03T14:53:09.275Z,1.00
2018-07-03T14:55:37.983Z,0.90
2018-07-03T14:58:06.824Z,1.00
2018-07-03T15:00:35.411Z,1.00
2018-07-03T15:03:04.473Z,0.90
2018-07-03T15:05:33.076Z,1.00
2018-07-03T15:08:01.600Z,0.80
2018-07-03T15:10:31.655Z,1.00
2018-07-03T15:13:00.416Z,1.00
2018-07-03T15:15:29.350Z,1.10
2018-07-03T15:17:58.221Z,0.90
2018-07-03T15:20:27.229Z,0.95
2018-07-03T15:22:56.084Z,1.10
2018-07-03T15:25:24.776Z,1.10
2018-07-03T15:27:53.494Z,1.15
2018-07-03T15:30:22.185Z,1.10
2018-07-03T15:32:50.968Z,0.95
2018-07-03T15:35:19.533Z,1.12
2018-07-03T15:37:48.047Z,1.22
2018-07-03T15:40:16.883Z,1.20
2018-07-03T15:42:45.470Z,1.20
2018-07-03T15:45:15.052Z,1.02
2018-07-03T15:47:43.638Z,0.85
2018-07-03T15:50:13.172Z,1.30
2018-07-03T15:52:41.755Z,1.00
2018-07-03T15:55:11.152Z,1.25
2018-07-03T15:57:39.719Z,1.20
2018-07-03T16:00:11.312Z,1.20
2018-07-03T16:02:46.959Z,1.10
2018-07-03T16:05:26.913Z,0.90
2018-07-03T16:09:06.757Z,1.20
2018-07-03T16:11:35.629Z,1.07
2018-07-03T16:14:04.188Z,1.15
2018-07-03T16:16:33.415Z,1.40
2018-07-03T16:19:07.282Z,1.25
2018-07-03T16:21:36.111Z,1.07
2018-07-03T16:24:05.261Z,1.40
2018-07-03T16:26:34.116Z,1.25
2018-07-03T16:29:03.084Z,1.22
2018-07-03T16:31:31.899Z,1.10
2018-07-03T16:34:00.712Z,1.00
2018-07-03T16:36:29.504Z,1.50
2018-07-03T16:38:58.220Z,1.40
2018-07-03T16:41:26.911Z,1.25
2018-07-03T16:43:55.712Z,1.15
2018-07-03T16:46:24.724Z,1.40
2018-07-03T16:48:53.384Z,1.57
2018-07-03T16:51:22.118Z,1.50
2018-07-03T16:53:50.715Z,1.10
2018-07-03T16:56:19.767Z,1.67
2018-07-03T16:58:48.513Z,1.20
2018-07-03T17:01:17.191Z,1.27
2018-07-03T17:03:45.987Z,1.32
2018-07-03T17:06:14.855Z,1.30
2018-07-03T17:08:43.609Z,1.40
2018-07-03T17:11:12.475Z,1.07
2018-07-03T17:13:40.902Z,1.05
2018-07-03T17:16:09.604Z,1.25
2018-07-03T17:18:42.378Z,1.07
2018-07-03T17:21:11.287Z,1.02
2018-07-03T17:23:40.179Z,1.20
2018-07-03T17:26:08.989Z,1.30
2018-07-03T17:28:37.637Z,1.10
2018-07-03T17:31:06.538Z,1.12
2018-07-03T17:33:35.484Z,1.40
2018-07-03T17:36:04.289Z,1.10
2018-07-03T17:38:32.963Z,1.20
2018-07-03T17:41:12.810Z,1.12
2018-07-03T17:44:21.146Z,0.90
2018-07-03T17:46:50.274Z,1.30
2018-07-03T17:49:19.307Z,0.90
2018-07-03T17:51:47.974Z,0.98
2018-07-03T17:54:16.651Z,0.82
2018-07-03T17:56:44.847Z,1.00
2018-07-03T17:59:13.577Z,0.85
2018-07-03T18:01:42.122Z,0.93
2018-07-03T18:04:10.791Z,0.90
2018-07-03T18:06:39.514Z,1.20
2018-07-03T18:09:10.370Z,1.20
2018-07-03T18:11:38.989Z,1.50
2018-07-03T18:14:07.987Z,1.10
2018-07-03T18:16:36.843Z,1.00
2018-07-03T18:19:10.781Z,1.02
2018-07-03T18:21:39.625Z,0.93
2018-07-03T18:24:08.492Z,0.93
2018-07-03T18:26:37.250Z,1.00
2018-07-03T18:29:06.277Z,0.82
2018-07-03T18:31:35.229Z,0.90
2018-07-03T18:34:04.137Z,0.98
2018-07-03T18:36:32.788Z,1.57
2018-07-03T18:39:02.056Z,1.27
2018-07-03T18:41:30.620Z,1.27
2018-07-03T18:43:59.483Z,1.20
2018-07-03T18:46:28.084Z,1.32
2018-07-03T18:48:59.934Z,1.10
2018-07-03T18:51:29.005Z,1.00
2018-07-03T18:53:58.078Z,1.20
2018-07-03T18:56:26.873Z,1.00
2018-07-03T18:58:55.783Z,1.17
2018-07-03T19:01:24.958Z,0.90
2018-07-03T19:03:53.750Z,1.30
2018-07-03T19:06:22.315Z,1.10
2018-07-03T19:08:51.297Z,0.97
2018-07-03T19:11:20.291Z,1.33
2018-07-03T19:13:48.819Z,1.20
2018-07-03T19:16:17.666Z,1.00
2018-07-03T19:18:46.548Z,1.10
2018-07-03T19:21:15.589Z,1.23
2018-07-03T19:23:44.229Z,1.13
2018-07-03T19:26:13.381Z,0.83
2018-07-03T19:28:42.017Z,1.00
2018-07-03T19:31:10.774Z,1.03
2018-07-03T19:33:39.364Z,1.07
2018-07-03T19:36:08.300Z,1.17
2018-07-03T19:38:37.080Z,1.10
2018-07-03T19:41:05.911Z,1.10
2018-07-03T19:43:35.966Z,1.20
2018-07-03T19:46:05.183Z,1.10
2018-07-03T19:48:33.895Z,1.00
2018-07-03T19:51:03.319Z,1.00
2018-07-03T19:53:32.264Z,1.10
2018-07-03T19:56:01.405Z,1.40
2018-07-03T19:58:30.096Z,1.33
2018-07-03T20:00:58.504Z,1.60
2018-07-03T20:03:27.351Z,1.10
2018-07-03T20:05:55.908Z,1.00
2018-07-03T20:08:24.499Z,1.10
2018-07-03T20:10:53.806Z,1.17
2018-07-03T20:13:22.692Z,1.20
2018-07-03T20:15:51.417Z,1.30
2018-07-03T20:18:20.065Z,1.30
2018-07-03T20:20:49.008Z,1.40
2018-07-03T20:23:17.666Z,1.20
2018-07-03T20:25:46.480Z,1.40
2018-07-03T20:28:15.126Z,1.50
2018-07-03T20:30:43.985Z,1.50
2018-07-03T20:33:12.826Z,1.40
2018-07-03T20:35:41.579Z,1.57
2018-07-03T20:38:10.437Z,1.50
2018-07-03T20:41:03.071Z,1.60
2018-07-03T20:43:33.183Z,1.33
2018-07-03T20:46:01.993Z,1.57
2018-07-03T20:48:31.255Z,1.30
2018-07-03T20:51:00.237Z,1.60
2018-07-03T20:53:28.901Z,1.50
2018-07-03T20:55:58.111Z,1.60
2018-07-03T20:58:26.866Z,1.50
2018-07-03T21:00:55.400Z,1.47
2018-07-03T21:03:24.196Z,1.40
2018-07-03T21:05:53.031Z,1.53
2018-07-03T21:08:21.575Z,1.50
2018-07-03T21:10:50.141Z,1.53
2018-07-03T21:13:18.790Z,1.70
2018-07-03T21:15:47.691Z,1.60
2018-07-03T21:18:16.440Z,1.30
2018-07-03T21:20:45.267Z,1.30
2018-07-03T21:23:14.169Z,1.20
2018-07-03T21:25:42.811Z,1.50
2018-07-03T21:28:11.616Z,1.10
2018-07-03T21:30:40.184Z,1.60
2018-07-03T21:33:09.204Z,1.30
2018-07-03T21:35:37.935Z,1.20
2018-07-03T21:38:06.536Z,1.40
2018-07-03T21:40:35.156Z,1.10
2018-07-03T21:43:03.852Z,1.43
2018-07-03T21:45:32.052Z,1.50
2018-07-03T21:48:00.525Z,1.83
2018-07-03T21:50:29.206Z,2.60
2018-07-03T21:52:57.856Z,1.93
2018-07-03T21:55:26.800Z,1.30
2018-07-03T21:57:55.602Z,1.53
2018-07-03T22:00:36.040Z,1.60
2018-07-03T22:03:06.279Z,1.40
2018-07-03T22:05:35.226Z,1.50
2018-07-03T22:08:03.948Z,1.60
2018-07-03T22:10:33.046Z,1.80
2018-07-03T22:13:02.000Z,1.40
2018-07-03T22:15:31.047Z,1.30
2018-07-03T22:17:59.630Z,1.33
2018-07-03T22:20:28.383Z,1.47
2018-07-03T22:22:57.095Z,1.37
2018-07-03T22:25:25.610Z,1.60
2018-07-03T22:27:54.328Z,1.30
2018-07-03T22:30:22.824Z,1.40
2018-07-03T22:32:51.561Z,1.40
2018-07-03T22:35:20.148Z,1.23
2018-07-03T22:37:48.889Z,1.30
2018-07-03T22:40:17.495Z,1.20
2018-07-03T22:42:46.040Z,1.40
2018-07-03T22:45:14.540Z,1.57
2018-07-03T22:47:43.106Z,1.60
2018-07-03T22:50:11.604Z,1.40
2018-07-03T22:52:40.169Z,1.77
2018-07-03T22:55:08.799Z,1.10
2018-07-03T22:57:37.384Z,1.47
2018-07-03T23:00:06.227Z,1.30
2018-07-03T23:02:34.778Z,1.23
2018-07-03T23:05:03.296Z,1.63
2018-07-03T23:07:32.069Z,1.37
2018-07-03T23:10:00.574Z,1.20
2018-07-03T23:12:29.076Z,1.47
2018-07-03T23:14:57.611Z,1.40
2018-07-03T23:17:26.312Z,1.60
2018-07-03T23:19:54.872Z,1.40
2018-07-03T23:22:23.388Z,1.30
2018-07-03T23:24:52.224Z,1.50
2018-07-03T23:27:20.987Z,1.40
2018-07-03T23:29:49.491Z,1.30
2018-07-03T23:32:18.138Z,1.43
2018-07-03T23:34:46.942Z,1.50
2018-07-03T23:37:15.717Z,1.40
2018-07-03T23:39:44.230Z,1.10
2018-07-03T23:42:12.723Z,1.40
2018-07-03T23:44:41.307Z,1.33
2018-07-03T23:47:20.921Z,1.47
2018-07-03T23:50:00.511Z,1.43
2018-07-03T23:52:40.318Z,1.20
2018-07-03T23:55:20.296Z,1.63
2018-07-03T23:58:00.187Z,1.40
